sensor_id;sensor_type;location;lat;lon;timestamp;P1;durP1;ratioP1;P2;durP2;ratioP2
12348;SDS011;5974;42.710;27.258;2022-07-06T00:01:39;6.43;;;2.70;;
12348;SDS011;5974;42.710;27.258;2022-07-06T00:04:07;3.97;;;2.70;;
12348;SDS011;5974;42.710;27.258;2022-07-06T00:06:33;3.07;;;2.87;;
12348;SDS011;5974;42.710;27.258;2022-07-06T00:09:00;9.47;;;3.10;;
12348;SDS011;5974;42.710;27.258;2022-07-06T00:11:27;3.33;;;2.80;;
12348;SDS011;5974;42.710;27.258;2022-07-06T00:13:54;4.60;;;3.00;;
12348;SDS011;5974;42.710;27.258;2022-07-06T00:16:21;3.73;;;2.97;;
12348;SDS011;5974;42.710;27.258;2022-07-06T00:18:48;4.13;;;3.50;;
12348;SDS011;5974;42.710;27.258;2022-07-06T00:21:16;3.30;;;3.10;;
12348;SDS011;5974;42.710;27.258;2022-07-06T00:23:43;3.87;;;3.13;;
12348;SDS011;5974;42.710;27.258;2022-07-06T00:26:10;3.97;;;3.23;;
12348;SDS011;5974;42.710;27.258;2022-07-06T00:28:37;7.83;;;3.10;;
12348;SDS011;5974;42.710;27.258;2022-07-06T00:31:03;4.37;;;3.60;;
12348;SDS011;5974;42.710;27.258;2022-07-06T00:33:30;4.93;;;3.00;;
12348;SDS011;5974;42.710;27.258;2022-07-06T00:35:57;4.33;;;3.27;;
12348;SDS011;5974;42.710;27.258;2022-07-06T00:38:25;3.60;;;3.30;;
12348;SDS011;5974;42.710;27.258;2022-07-06T00:40:52;4.40;;;3.17;;
12348;SDS011;5974;42.710;27.258;2022-07-06T00:43:19;3.33;;;3.03;;
12348;SDS011;5974;42.710;27.258;2022-07-06T00:45:45;3.07;;;2.87;;
12348;SDS011;5974;42.710;27.258;2022-07-06T00:48:12;3.90;;;3.43;;
12348;SDS011;5974;42.710;27.258;2022-07-06T00:50:39;4.37;;;3.47;;
12348;SDS011;5974;42.710;27.258;2022-07-06T00:53:06;7.20;;;3.70;;
12348;SDS011;5974;42.710;27.258;2022-07-06T00:55:35;3.60;;;3.40;;
12348;SDS011;5974;42.710;27.258;2022-07-06T00:58:04;3.80;;;3.50;;
12348;SDS011;5974;42.710;27.258;2022-07-06T01:00:32;3.77;;;3.13;;
12348;SDS011;5974;42.710;27.258;2022-07-06T01:02:59;4.70;;;3.50;;
12348;SDS011;5974;42.710;27.258;2022-07-06T01:05:27;6.23;;;3.70;;
12348;SDS011;5974;42.710;27.258;2022-07-06T01:07:54;3.50;;;3.20;;
12348;SDS011;5974;42.710;27.258;2022-07-06T01:10:22;3.47;;;3.03;;
12348;SDS011;5974;42.710;27.258;2022-07-06T01:12:50;4.40;;;3.17;;
12348;SDS011;5974;42.710;27.258;2022-07-06T01:15:17;6.47;;;3.70;;
12348;SDS011;5974;42.710;27.258;2022-07-06T01:17:44;3.37;;;3.03;;
12348;SDS011;5974;42.710;27.258;2022-07-06T01:20:12;3.80;;;3.13;;
12348;SDS011;5974;42.710;27.258;2022-07-06T01:22:39;4.17;;;3.77;;
12348;SDS011;5974;42.710;27.258;2022-07-06T01:25:06;3.33;;;3.00;;
12348;SDS011;5974;42.710;27.258;2022-07-06T01:27:34;4.50;;;3.40;;
12348;SDS011;5974;42.710;27.258;2022-07-06T01:30:03;3.40;;;3.10;;
12348;SDS011;5974;42.710;27.258;2022-07-06T01:32:30;3.60;;;3.30;;
12348;SDS011;5974;42.710;27.258;2022-07-06T01:34:56;3.47;;;3.27;;
12348;SDS011;5974;42.710;27.258;2022-07-06T01:37:24;3.27;;;3.00;;
12348;SDS011;5974;42.710;27.258;2022-07-06T01:39:51;5.83;;;3.27;;
12348;SDS011;5974;42.710;27.258;2022-07-06T01:42:18;4.70;;;3.60;;
12348;SDS011;5974;42.710;27.258;2022-07-06T01:44:44;5.00;;;3.63;;
12348;SDS011;5974;42.710;27.258;2022-07-06T01:47:11;4.20;;;3.57;;
12348;SDS011;5974;42.710;27.258;2022-07-06T01:49:38;4.67;;;3.50;;
12348;SDS011;5974;42.710;27.258;2022-07-06T01:52:04;4.57;;;3.63;;
12348;SDS011;5974;42.710;27.258;2022-07-06T01:54:33;4.33;;;3.60;;
12348;SDS011;5974;42.710;27.258;2022-07-06T01:56:59;3.30;;;2.77;;
12348;SDS011;5974;42.710;27.258;2022-07-06T01:59:26;4.53;;;3.33;;
12348;SDS011;5974;42.710;27.258;2022-07-06T02:01:52;4.27;;;3.20;;
12348;SDS011;5974;42.710;27.258;2022-07-06T02:04:19;5.13;;;3.80;;
12348;SDS011;5974;42.710;27.258;2022-07-06T02:06:46;7.53;;;3.33;;
12348;SDS011;5974;42.710;27.258;2022-07-06T02:09:12;3.80;;;3.50;;
12348;SDS011;5974;42.710;27.258;2022-07-06T02:11:41;3.50;;;3.20;;
12348;SDS011;5974;42.710;27.258;2022-07-06T02:14:07;3.80;;;3.07;;
12348;SDS011;5974;42.710;27.258;2022-07-06T02:16:34;4.07;;;3.27;;
12348;SDS011;5974;42.710;27.258;2022-07-06T02:19:01;4.63;;;3.20;;
12348;SDS011;5974;42.710;27.258;2022-07-06T02:21:28;5.40;;;3.40;;
12348;SDS011;5974;42.710;27.258;2022-07-06T02:23:54;4.13;;;3.30;;
12348;SDS011;5974;42.710;27.258;2022-07-06T02:26:21;3.93;;;3.53;;
12348;SDS011;5974;42.710;27.258;2022-07-06T02:28:49;5.30;;;3.40;;
12348;SDS011;5974;42.710;27.258;2022-07-06T02:31:16;3.70;;;3.40;;
12348;SDS011;5974;42.710;27.258;2022-07-06T02:33:43;3.80;;;3.50;;
12348;SDS011;5974;42.710;27.258;2022-07-06T02:36:09;7.17;;;3.47;;
12348;SDS011;5974;42.710;27.258;2022-07-06T02:38:36;4.63;;;3.50;;
12348;SDS011;5974;42.710;27.258;2022-07-06T02:41:03;5.50;;;3.70;;
12348;SDS011;5974;42.710;27.258;2022-07-06T02:43:29;6.47;;;3.60;;
12348;SDS011;5974;42.710;27.258;2022-07-06T02:45:57;3.93;;;3.57;;
12348;SDS011;5974;42.710;27.258;2022-07-06T02:48:24;4.60;;;3.37;;
12348;SDS011;5974;42.710;27.258;2022-07-06T02:50:51;3.97;;;3.30;;
12348;SDS011;5974;42.710;27.258;2022-07-06T02:53:17;3.97;;;3.67;;
12348;SDS011;5974;42.710;27.258;2022-07-06T02:55:44;9.03;;;3.80;;
12348;SDS011;5974;42.710;27.258;2022-07-06T02:58:11;5.87;;;3.43;;
12348;SDS011;5974;42.710;27.258;2022-07-06T03:00:38;3.93;;;3.50;;
12348;SDS011;5974;42.710;27.258;2022-07-06T03:03:06;5.53;;;3.50;;
12348;SDS011;5974;42.710;27.258;2022-07-06T03:05:34;3.77;;;3.47;;
12348;SDS011;5974;42.710;27.258;2022-07-06T03:08:01;6.20;;;3.93;;
12348;SDS011;5974;42.710;27.258;2022-07-06T03:10:27;4.63;;;3.37;;
12348;SDS011;5974;42.710;27.258;2022-07-06T03:12:54;3.60;;;3.40;;
12348;SDS011;5974;42.710;27.258;2022-07-06T03:15:20;6.83;;;3.80;;
12348;SDS011;5974;42.710;27.258;2022-07-06T03:17:47;4.20;;;3.80;;
12348;SDS011;5974;42.710;27.258;2022-07-06T03:20:15;12.80;;;4.10;;
12348;SDS011;5974;42.710;27.258;2022-07-06T03:22:42;4.20;;;3.80;;
12348;SDS011;5974;42.710;27.258;2022-07-06T03:25:09;10.50;;;4.47;;
12348;SDS011;5974;42.710;27.258;2022-07-06T03:27:35;4.37;;;4.07;;
12348;SDS011;5974;42.710;27.258;2022-07-06T03:30:02;4.47;;;4.00;;
12348;SDS011;5974;42.710;27.258;2022-07-06T03:32:29;7.70;;;4.43;;
12348;SDS011;5974;42.710;27.258;2022-07-06T03:34:57;5.67;;;4.23;;
12348;SDS011;5974;42.710;27.258;2022-07-06T03:37:25;4.13;;;3.60;;
12348;SDS011;5974;42.710;27.258;2022-07-06T03:39:51;5.27;;;3.83;;
12348;SDS011;5974;42.710;27.258;2022-07-06T03:42:18;3.67;;;3.33;;
12348;SDS011;5974;42.710;27.258;2022-07-06T03:44:44;5.63;;;3.40;;
12348;SDS011;5974;42.710;27.258;2022-07-06T03:47:11;3.53;;;3.13;;
12348;SDS011;5974;42.710;27.258;2022-07-06T03:49:38;8.20;;;3.50;;
12348;SDS011;5974;42.710;27.258;2022-07-06T03:52:05;6.80;;;3.43;;
12348;SDS011;5974;42.710;27.258;2022-07-06T03:54:33;5.67;;;3.13;;
12348;SDS011;5974;42.710;27.258;2022-07-06T03:56:59;7.00;;;3.00;;
12348;SDS011;5974;42.710;27.258;2022-07-06T04:02:23;4.17;;;3.20;;
12348;SDS011;5974;42.710;27.258;2022-07-06T04:04:49;3.57;;;3.27;;
12348;SDS011;5974;42.710;27.258;2022-07-06T04:07:16;4.27;;;3.27;;
12348;SDS011;5974;42.710;27.258;2022-07-06T04:09:44;6.57;;;3.67;;
12348;SDS011;5974;42.710;27.258;2022-07-06T04:12:11;3.90;;;3.60;;
12348;SDS011;5974;42.710;27.258;2022-07-06T04:14:38;5.50;;;3.90;;
12348;SDS011;5974;42.710;27.258;2022-07-06T04:17:04;8.90;;;3.83;;
12348;SDS011;5974;42.710;27.258;2022-07-06T04:19:45;7.37;;;3.40;;
12348;SDS011;5974;42.710;27.258;2022-07-06T04:22:11;4.23;;;3.83;;
12348;SDS011;5974;42.710;27.258;2022-07-06T04:24:38;7.27;;;3.17;;
12348;SDS011;5974;42.710;27.258;2022-07-06T04:27:06;5.10;;;3.30;;
12348;SDS011;5974;42.710;27.258;2022-07-06T04:29:33;3.20;;;3.00;;
12348;SDS011;5974;42.710;27.258;2022-07-06T04:31:59;9.50;;;3.23;;
12348;SDS011;5974;42.710;27.258;2022-07-06T04:34:26;5.63;;;3.20;;
12348;SDS011;5974;42.710;27.258;2022-07-06T04:36:53;7.30;;;3.10;;
12348;SDS011;5974;42.710;27.258;2022-07-06T04:39:19;4.10;;;3.13;;
12348;SDS011;5974;42.710;27.258;2022-07-06T04:41:46;11.00;;;3.92;;
12348;SDS011;5974;42.710;27.258;2022-07-06T04:44:14;4.30;;;3.47;;
12348;SDS011;5974;42.710;27.258;2022-07-06T04:46:41;4.78;;;3.40;;
12348;SDS011;5974;42.710;27.258;2022-07-06T04:49:07;11.40;;;3.58;;
12348;SDS011;5974;42.710;27.258;2022-07-06T04:51:34;7.15;;;3.55;;
12348;SDS011;5974;42.710;27.258;2022-07-06T04:54:00;9.13;;;3.85;;
12348;SDS011;5974;42.710;27.258;2022-07-06T04:56:29;8.20;;;3.95;;
12348;SDS011;5974;42.710;27.258;2022-07-06T04:58:56;10.32;;;4.07;;
12348;SDS011;5974;42.710;27.258;2022-07-06T05:01:24;9.95;;;3.90;;
12348;SDS011;5974;42.710;27.258;2022-07-06T05:03:51;7.00;;;3.58;;
12348;SDS011;5974;42.710;27.258;2022-07-06T05:06:17;4.57;;;3.50;;
12348;SDS011;5974;42.710;27.258;2022-07-06T05:08:45;8.80;;;3.83;;
12348;SDS011;5974;42.710;27.258;2022-07-06T05:11:11;4.65;;;3.17;;
12348;SDS011;5974;42.710;27.258;2022-07-06T05:13:38;8.77;;;3.92;;
12348;SDS011;5974;42.710;27.258;2022-07-06T05:16:05;8.50;;;3.70;;
12348;SDS011;5974;42.710;27.258;2022-07-06T05:18:33;4.55;;;3.25;;
12348;SDS011;5974;42.710;27.258;2022-07-06T05:20:59;5.70;;;3.95;;
12348;SDS011;5974;42.710;27.258;2022-07-06T05:23:27;10.23;;;4.25;;
12348;SDS011;5974;42.710;27.258;2022-07-06T05:25:54;5.95;;;4.10;;
12348;SDS011;5974;42.710;27.258;2022-07-06T05:28:21;9.88;;;4.20;;
12348;SDS011;5974;42.710;27.258;2022-07-06T05:30:47;6.97;;;4.20;;
12348;SDS011;5974;42.710;27.258;2022-07-06T05:33:14;12.55;;;4.45;;
12348;SDS011;5974;42.710;27.258;2022-07-06T05:35:42;5.30;;;4.28;;
12348;SDS011;5974;42.710;27.258;2022-07-06T05:38:09;4.30;;;3.85;;
12348;SDS011;5974;42.710;27.258;2022-07-06T05:40:35;9.50;;;3.90;;
12348;SDS011;5974;42.710;27.258;2022-07-06T05:43:02;5.20;;;4.10;;
12348;SDS011;5974;42.710;27.258;2022-07-06T05:45:29;8.50;;;4.35;;
12348;SDS011;5974;42.710;27.258;2022-07-06T05:47:56;9.60;;;4.60;;
12348;SDS011;5974;42.710;27.258;2022-07-06T05:50:40;6.00;;;4.38;;
12348;SDS011;5974;42.710;27.258;2022-07-06T05:53:08;7.45;;;4.57;;
12348;SDS011;5974;42.710;27.258;2022-07-06T05:55:34;7.28;;;4.82;;
12348;SDS011;5974;42.710;27.258;2022-07-06T05:58:01;8.57;;;4.57;;
12348;SDS011;5974;42.710;27.258;2022-07-06T06:00:28;6.30;;;4.60;;
12348;SDS011;5974;42.710;27.258;2022-07-06T06:02:55;6.25;;;4.30;;
12348;SDS011;5974;42.710;27.258;2022-07-06T06:05:22;4.82;;;4.40;;
12348;SDS011;5974;42.710;27.258;2022-07-06T06:07:48;5.10;;;4.28;;
12348;SDS011;5974;42.710;27.258;2022-07-06T06:10:18;6.22;;;4.50;;
12348;SDS011;5974;42.710;27.258;2022-07-06T06:12:47;6.47;;;4.43;;
12348;SDS011;5974;42.710;27.258;2022-07-06T06:15:13;6.22;;;4.00;;
12348;SDS011;5974;42.710;27.258;2022-07-06T06:17:40;4.47;;;4.05;;
12348;SDS011;5974;42.710;27.258;2022-07-06T06:20:08;6.30;;;4.00;;
12348;SDS011;5974;42.710;27.258;2022-07-06T06:22:43;6.50;;;4.05;;
12348;SDS011;5974;42.710;27.258;2022-07-06T06:25:10;4.70;;;4.00;;
12348;SDS011;5974;42.710;27.258;2022-07-06T06:27:38;6.47;;;3.97;;
12348;SDS011;5974;42.710;27.258;2022-07-06T06:30:05;4.30;;;3.80;;
12348;SDS011;5974;42.710;27.258;2022-07-06T06:32:32;5.18;;;4.05;;
12348;SDS011;5974;42.710;27.258;2022-07-06T06:34:58;14.95;;;4.82;;
12348;SDS011;5974;42.710;27.258;2022-07-06T06:37:25;6.22;;;4.00;;
12348;SDS011;5974;42.710;27.258;2022-07-06T06:39:52;17.70;;;4.72;;
12348;SDS011;5974;42.710;27.258;2022-07-06T06:42:18;6.53;;;3.70;;
12348;SDS011;5974;42.710;27.258;2022-07-06T06:44:46;3.83;;;3.47;;
12348;SDS011;5974;42.710;27.258;2022-07-06T06:47:13;5.95;;;4.13;;
12348;SDS011;5974;42.710;27.258;2022-07-06T06:49:40;4.47;;;3.90;;
12348;SDS011;5974;42.710;27.258;2022-07-06T06:52:06;6.10;;;3.92;;
12348;SDS011;5974;42.710;27.258;2022-07-06T06:54:33;4.32;;;3.70;;
12348;SDS011;5974;42.710;27.258;2022-07-06T06:56:59;5.65;;;3.97;;
12348;SDS011;5974;42.710;27.258;2022-07-06T06:59:26;6.65;;;3.78;;
12348;SDS011;5974;42.710;27.258;2022-07-06T07:01:54;4.40;;;4.07;;
12348;SDS011;5974;42.710;27.258;2022-07-06T07:04:21;4.32;;;3.90;;
12348;SDS011;5974;42.710;27.258;2022-07-06T07:06:47;4.25;;;3.58;;
12348;SDS011;5974;42.710;27.258;2022-07-06T07:09:14;3.80;;;3.50;;
12348;SDS011;5974;42.710;27.258;2022-07-06T07:11:41;4.47;;;4.07;;
12348;SDS011;5974;42.710;27.258;2022-07-06T07:14:07;9.15;;;3.72;;
12348;SDS011;5974;42.710;27.258;2022-07-06T07:16:34;4.05;;;3.75;;
12348;SDS011;5974;42.710;27.258;2022-07-06T07:19:02;4.80;;;3.42;;
12348;SDS011;5974;42.710;27.258;2022-07-06T07:21:29;6.72;;;3.70;;
12348;SDS011;5974;42.710;27.258;2022-07-06T07:23:55;4.72;;;3.75;;
12348;SDS011;5974;42.710;27.258;2022-07-06T07:26:22;4.30;;;3.78;;
12348;SDS011;5974;42.710;27.258;2022-07-06T07:28:49;4.07;;;3.67;;
12348;SDS011;5974;42.710;27.258;2022-07-06T07:31:16;5.38;;;3.60;;
12348;SDS011;5974;42.710;27.258;2022-07-06T07:33:42;6.18;;;3.35;;
12348;SDS011;5974;42.710;27.258;2022-07-06T07:36:11;4.20;;;3.90;;
12348;SDS011;5974;42.710;27.258;2022-07-06T07:38:39;4.10;;;3.70;;
12348;SDS011;5974;42.710;27.258;2022-07-06T07:41:06;5.30;;;4.18;;
12348;SDS011;5974;42.710;27.258;2022-07-06T07:43:32;4.85;;;3.83;;
12348;SDS011;5974;42.710;27.258;2022-07-06T07:45:59;4.55;;;3.90;;
12348;SDS011;5974;42.710;27.258;2022-07-06T07:48:25;3.90;;;3.60;;
12348;SDS011;5974;42.710;27.258;2022-07-06T07:50:52;7.22;;;4.43;;
12348;SDS011;5974;42.710;27.258;2022-07-06T07:53:20;5.07;;;4.10;;
12348;SDS011;5974;42.710;27.258;2022-07-06T07:55:47;4.78;;;3.60;;
12348;SDS011;5974;42.710;27.258;2022-07-06T07:58:14;6.63;;;4.13;;
12348;SDS011;5974;42.710;27.258;2022-07-06T08:00:40;5.90;;;3.83;;
12348;SDS011;5974;42.710;27.258;2022-07-06T08:03:07;6.93;;;3.83;;
12348;SDS011;5974;42.710;27.258;2022-07-06T08:05:34;4.50;;;4.10;;
12348;SDS011;5974;42.710;27.258;2022-07-06T08:08:00;4.40;;;3.75;;
12348;SDS011;5974;42.710;27.258;2022-07-06T08:10:29;5.82;;;3.53;;
12348;SDS011;5974;42.710;27.258;2022-07-06T08:12:55;4.30;;;3.90;;
12348;SDS011;5974;42.710;27.258;2022-07-06T08:15:22;7.60;;;3.60;;
12348;SDS011;5974;42.710;27.258;2022-07-06T08:17:48;5.65;;;3.90;;
12348;SDS011;5974;42.710;27.258;2022-07-06T08:20:15;5.95;;;3.50;;
12348;SDS011;5974;42.710;27.258;2022-07-06T08:22:42;3.80;;;3.33;;
12348;SDS011;5974;42.710;27.258;2022-07-06T08:25:09;5.00;;;3.73;;
12348;SDS011;5974;42.710;27.258;2022-07-06T08:27:37;4.93;;;3.83;;
12348;SDS011;5974;42.710;27.258;2022-07-06T08:30:04;6.90;;;4.23;;
12348;SDS011;5974;42.710;27.258;2022-07-06T08:32:31;4.57;;;3.80;;
12348;SDS011;5974;42.710;27.258;2022-07-06T08:34:57;5.47;;;3.50;;
12348;SDS011;5974;42.710;27.258;2022-07-06T08:37:24;5.40;;;4.10;;
12348;SDS011;5974;42.710;27.258;2022-07-06T08:39:51;3.77;;;3.40;;
12348;SDS011;5974;42.710;27.258;2022-07-06T08:42:17;4.03;;;3.60;;
12348;SDS011;5974;42.710;27.258;2022-07-06T08:44:45;7.30;;;3.67;;
12348;SDS011;5974;42.710;27.258;2022-07-06T08:47:12;7.33;;;3.50;;
12348;SDS011;5974;42.710;27.258;2022-07-06T08:49:40;6.63;;;3.43;;
12348;SDS011;5974;42.710;27.258;2022-07-06T08:52:07;3.17;;;2.97;;
12348;SDS011;5974;42.710;27.258;2022-07-06T08:54:33;3.83;;;3.17;;
12348;SDS011;5974;42.710;27.258;2022-07-06T08:57:01;5.70;;;3.10;;
12348;SDS011;5974;42.710;27.258;2022-07-06T08:59:28;3.37;;;3.03;;
12348;SDS011;5974;42.710;27.258;2022-07-06T09:01:57;3.73;;;2.87;;
12348;SDS011;5974;42.710;27.258;2022-07-06T09:04:25;3.58;;;2.97;;
12348;SDS011;5974;42.710;27.258;2022-07-06T09:06:52;5.47;;;3.10;;
12348;SDS011;5974;42.710;27.258;2022-07-06T09:09:19;3.57;;;3.23;;
12348;SDS011;5974;42.710;27.258;2022-07-06T09:11:47;5.23;;;3.40;;
12348;SDS011;5974;42.710;27.258;2022-07-06T09:14:13;3.73;;;3.40;;
12348;SDS011;5974;42.710;27.258;2022-07-06T09:16:40;6.13;;;3.40;;
12348;SDS011;5974;42.710;27.258;2022-07-06T09:19:09;4.40;;;3.10;;
12348;SDS011;5974;42.710;27.258;2022-07-06T09:21:36;4.40;;;3.30;;
12348;SDS011;5974;42.710;27.258;2022-07-06T09:24:05;5.00;;;3.30;;
12348;SDS011;5974;42.710;27.258;2022-07-06T09:26:32;3.37;;;2.93;;
12348;SDS011;5974;42.710;27.258;2022-07-06T09:28:59;5.30;;;3.40;;
12348;SDS011;5974;42.710;27.258;2022-07-06T09:31:26;3.50;;;3.20;;
12348;SDS011;5974;42.710;27.258;2022-07-06T09:33:53;6.53;;;3.50;;
12348;SDS011;5974;42.710;27.258;2022-07-06T09:36:30;4.83;;;3.60;;
12348;SDS011;5974;42.710;27.258;2022-07-06T09:39:14;4.17;;;3.23;;
12348;SDS011;5974;42.710;27.258;2022-07-06T09:41:41;4.97;;;3.60;;
12348;SDS011;5974;42.710;27.258;2022-07-06T09:44:08;4.00;;;3.70;;
12348;SDS011;5974;42.710;27.258;2022-07-06T09:46:37;5.93;;;3.90;;
12348;SDS011;5974;42.710;27.258;2022-07-06T09:49:04;4.87;;;3.83;;
12348;SDS011;5974;42.710;27.258;2022-07-06T09:51:36;3.60;;;3.30;;
12348;SDS011;5974;42.710;27.258;2022-07-06T09:54:06;4.10;;;3.80;;
12348;SDS011;5974;42.710;27.258;2022-07-06T09:56:37;3.97;;;3.53;;
12348;SDS011;5974;42.710;27.258;2022-07-06T09:59:10;3.53;;;3.23;;
12348;SDS011;5974;42.710;27.258;2022-07-06T10:01:37;4.67;;;3.50;;
12348;SDS011;5974;42.710;27.258;2022-07-06T10:04:04;4.00;;;3.60;;
12348;SDS011;5974;42.710;27.258;2022-07-06T10:06:31;3.90;;;3.60;;
12348;SDS011;5974;42.710;27.258;2022-07-06T10:08:59;5.17;;;3.70;;
12348;SDS011;5974;42.710;27.258;2022-07-06T10:11:26;3.77;;;3.47;;
12348;SDS011;5974;42.710;27.258;2022-07-06T10:13:54;3.50;;;3.20;;
12348;SDS011;5974;42.710;27.258;2022-07-06T10:16:22;4.03;;;3.43;;
12348;SDS011;5974;42.710;27.258;2022-07-06T10:18:49;4.23;;;3.50;;
12348;SDS011;5974;42.710;27.258;2022-07-06T10:21:18;6.87;;;3.40;;
12348;SDS011;5974;42.710;27.258;2022-07-06T10:23:45;5.20;;;3.70;;
12348;SDS011;5974;42.710;27.258;2022-07-06T10:26:13;6.17;;;3.50;;
12348;SDS011;5974;42.710;27.258;2022-07-06T10:28:41;7.83;;;4.13;;
12348;SDS011;5974;42.710;27.258;2022-07-06T10:31:08;4.88;;;4.20;;
12348;SDS011;5974;42.710;27.258;2022-07-06T10:33:35;5.67;;;4.43;;
12348;SDS011;5974;42.710;27.258;2022-07-06T10:36:02;4.63;;;4.13;;
12348;SDS011;5974;42.710;27.258;2022-07-06T10:38:30;6.17;;;3.70;;
12348;SDS011;5974;42.710;27.258;2022-07-06T10:41:01;3.67;;;3.37;;
12348;SDS011;5974;42.710;27.258;2022-07-06T10:43:33;10.77;;;4.93;;
12348;SDS011;5974;42.710;27.258;2022-07-06T10:46:04;5.53;;;3.73;;
12348;SDS011;5974;42.710;27.258;2022-07-06T10:48:34;4.13;;;3.73;;
12348;SDS011;5974;42.710;27.258;2022-07-06T10:51:00;4.03;;;3.50;;
12348;SDS011;5974;42.710;27.258;2022-07-06T10:53:30;4.50;;;4.00;;
12348;SDS011;5974;42.710;27.258;2022-07-06T10:55:58;4.97;;;4.40;;
12348;SDS011;5974;42.710;27.258;2022-07-06T10:58:36;8.00;;;4.73;;
12348;SDS011;5974;42.710;27.258;2022-07-06T11:01:03;4.33;;;3.80;;
12348;SDS011;5974;42.710;27.258;2022-07-06T11:03:35;4.70;;;3.50;;
12348;SDS011;5974;42.710;27.258;2022-07-06T11:06:02;4.53;;;3.70;;
12348;SDS011;5974;42.710;27.258;2022-07-06T11:08:44;6.23;;;4.13;;
12348;SDS011;5974;42.710;27.258;2022-07-06T11:11:11;6.10;;;3.70;;
12348;SDS011;5974;42.710;27.258;2022-07-06T11:13:43;4.03;;;3.50;;
12348;SDS011;5974;42.710;27.258;2022-07-06T11:16:10;3.83;;;3.53;;
12348;SDS011;5974;42.710;27.258;2022-07-06T11:18:39;4.03;;;3.60;;
12348;SDS011;5974;42.710;27.258;2022-07-06T11:21:19;5.77;;;3.77;;
12348;SDS011;5974;42.710;27.258;2022-07-06T11:23:47;4.97;;;3.73;;
12348;SDS011;5974;42.710;27.258;2022-07-06T11:26:14;4.50;;;3.77;;
12348;SDS011;5974;42.710;27.258;2022-07-06T11:28:42;5.20;;;3.63;;
12348;SDS011;5974;42.710;27.258;2022-07-06T11:31:11;4.03;;;3.73;;
12348;SDS011;5974;42.710;27.258;2022-07-06T11:33:38;5.30;;;3.60;;
12348;SDS011;5974;42.710;27.258;2022-07-06T11:36:17;4.27;;;3.83;;
12348;SDS011;5974;42.710;27.258;2022-07-06T11:38:44;6.27;;;4.30;;
12348;SDS011;5974;42.710;27.258;2022-07-06T11:41:11;4.30;;;3.37;;
12348;SDS011;5974;42.710;27.258;2022-07-06T11:43:39;6.67;;;3.80;;
12348;SDS011;5974;42.710;27.258;2022-07-06T11:48:51;4.67;;;3.80;;
12348;SDS011;5974;42.710;27.258;2022-07-06T11:51:18;4.40;;;3.73;;
12348;SDS011;5974;42.710;27.258;2022-07-06T11:53:45;4.77;;;4.00;;
12348;SDS011;5974;42.710;27.258;2022-07-06T11:56:14;3.53;;;3.00;;
12348;SDS011;5974;42.710;27.258;2022-07-06T11:58:41;8.60;;;3.83;;
12348;SDS011;5974;42.710;27.258;2022-07-06T12:01:12;3.50;;;3.20;;
12348;SDS011;5974;42.710;27.258;2022-07-06T12:03:39;5.03;;;3.70;;
12348;SDS011;5974;42.710;27.258;2022-07-06T12:06:13;3.80;;;3.50;;
12348;SDS011;5974;42.710;27.258;2022-07-06T12:08:41;4.90;;;3.63;;
12348;SDS011;5974;42.710;27.258;2022-07-06T12:11:08;3.60;;;3.27;;
12348;SDS011;5974;42.710;27.258;2022-07-06T12:13:35;5.13;;;3.40;;
12348;SDS011;5974;42.710;27.258;2022-07-06T12:16:08;5.67;;;3.80;;
12348;SDS011;5974;42.710;27.258;2022-07-06T12:18:38;5.30;;;3.50;;
12348;SDS011;5974;42.710;27.258;2022-07-06T12:21:08;4.40;;;3.63;;
12348;SDS011;5974;42.710;27.258;2022-07-06T12:23:41;3.73;;;3.40;;
12348;SDS011;5974;42.710;27.258;2022-07-06T12:26:08;4.53;;;3.37;;
12348;SDS011;5974;42.710;27.258;2022-07-06T12:28:35;3.90;;;3.57;;
12348;SDS011;5974;42.710;27.258;2022-07-06T12:31:02;4.83;;;4.23;;
12348;SDS011;5974;42.710;27.258;2022-07-06T12:33:29;4.53;;;4.17;;
12348;SDS011;5974;42.710;27.258;2022-07-06T12:35:55;3.70;;;3.30;;
12348;SDS011;5974;42.710;27.258;2022-07-06T12:38:24;4.10;;;3.43;;
12348;SDS011;5974;42.710;27.258;2022-07-06T12:40:51;4.47;;;3.87;;
12348;SDS011;5974;42.710;27.258;2022-07-06T12:45:59;3.80;;;3.50;;
12348;SDS011;5974;42.710;27.258;2022-07-06T12:48:26;4.97;;;3.30;;
12348;SDS011;5974;42.710;27.258;2022-07-06T12:50:52;3.33;;;3.13;;
12348;SDS011;5974;42.710;27.258;2022-07-06T12:53:26;3.60;;;3.30;;
12348;SDS011;5974;42.710;27.258;2022-07-06T12:56:07;3.63;;;3.37;;
12348;SDS011;5974;42.710;27.258;2022-07-06T12:58:34;7.03;;;3.77;;
12348;SDS011;5974;42.710;27.258;2022-07-06T13:01:00;4.53;;;3.00;;
12348;SDS011;5974;42.710;27.258;2022-07-06T13:03:27;4.27;;;3.57;;
12348;SDS011;5974;42.710;27.258;2022-07-06T13:05:54;5.00;;;3.50;;
12348;SDS011;5974;42.710;27.258;2022-07-06T13:08:20;4.43;;;3.53;;
12348;SDS011;5974;42.710;27.258;2022-07-06T13:10:49;4.20;;;3.57;;
12348;SDS011;5974;42.710;27.258;2022-07-06T13:13:15;4.97;;;3.67;;
12348;SDS011;5974;42.710;27.258;2022-07-06T13:15:43;3.97;;;3.23;;
12348;SDS011;5974;42.710;27.258;2022-07-06T13:18:10;3.40;;;3.20;;
12348;SDS011;5974;42.710;27.258;2022-07-06T13:20:36;4.70;;;2.87;;
12348;SDS011;5974;42.710;27.258;2022-07-06T13:23:03;5.27;;;3.13;;
12348;SDS011;5974;42.710;27.258;2022-07-06T13:25:30;7.60;;;3.03;;
12348;SDS011;5974;42.710;27.258;2022-07-06T13:27:58;6.03;;;3.37;;
12348;SDS011;5974;42.710;27.258;2022-07-06T13:30:24;4.83;;;3.20;;
12348;SDS011;5974;42.710;27.258;2022-07-06T13:32:53;4.33;;;3.00;;
12348;SDS011;5974;42.710;27.258;2022-07-06T13:35:19;6.13;;;3.10;;
12348;SDS011;5974;42.710;27.258;2022-07-06T13:37:46;6.43;;;2.90;;
12348;SDS011;5974;42.710;27.258;2022-07-06T13:40:14;3.83;;;2.97;;
12348;SDS011;5974;42.710;27.258;2022-07-06T13:42:41;4.67;;;3.37;;
12348;SDS011;5974;42.710;27.258;2022-07-06T13:45:09;5.93;;;3.40;;
12348;SDS011;5974;42.710;27.258;2022-07-06T13:47:36;4.97;;;3.70;;
12348;SDS011;5974;42.710;27.258;2022-07-06T13:50:03;5.83;;;3.53;;
12348;SDS011;5974;42.710;27.258;2022-07-06T13:52:30;3.70;;;3.23;;
12348;SDS011;5974;42.710;27.258;2022-07-06T13:54:57;3.53;;;3.00;;
12348;SDS011;5974;42.710;27.258;2022-07-06T13:57:24;4.43;;;2.70;;
12348;SDS011;5974;42.710;27.258;2022-07-06T13:59:51;4.33;;;3.00;;
12348;SDS011;5974;42.710;27.258;2022-07-06T14:02:19;8.63;;;2.83;;
12348;SDS011;5974;42.710;27.258;2022-07-06T14:04:45;3.30;;;2.70;;
12348;SDS011;5974;42.710;27.258;2022-07-06T14:07:12;4.20;;;3.23;;
12348;SDS011;5974;42.710;27.258;2022-07-06T14:09:39;5.30;;;3.00;;
12348;SDS011;5974;42.710;27.258;2022-07-06T14:12:06;3.00;;;2.70;;
12348;SDS011;5974;42.710;27.258;2022-07-06T14:14:32;3.90;;;3.00;;
12348;SDS011;5974;42.710;27.258;2022-07-06T14:16:59;9.13;;;3.47;;
12348;SDS011;5974;42.710;27.258;2022-07-06T14:19:27;5.63;;;3.07;;
12348;SDS011;5974;42.710;27.258;2022-07-06T14:21:54;8.83;;;3.10;;
12348;SDS011;5974;42.710;27.258;2022-07-06T14:24:22;3.70;;;3.13;;
12348;SDS011;5974;42.710;27.258;2022-07-06T14:26:49;9.90;;;3.20;;
12348;SDS011;5974;42.710;27.258;2022-07-06T14:29:15;7.60;;;2.87;;
12348;SDS011;5974;42.710;27.258;2022-07-06T14:31:42;5.57;;;3.20;;
12348;SDS011;5974;42.710;27.258;2022-07-06T14:34:12;8.13;;;2.90;;
12348;SDS011;5974;42.710;27.258;2022-07-06T14:36:40;3.40;;;2.70;;
12348;SDS011;5974;42.710;27.258;2022-07-06T14:39:07;5.97;;;3.30;;
12348;SDS011;5974;42.710;27.258;2022-07-06T14:41:34;12.23;;;3.00;;
12348;SDS011;5974;42.710;27.258;2022-07-06T14:44:00;3.00;;;2.70;;
12348;SDS011;5974;42.710;27.258;2022-07-06T14:46:27;4.47;;;2.80;;
12348;SDS011;5974;42.710;27.258;2022-07-06T14:48:54;3.70;;;2.60;;
12348;SDS011;5974;42.710;27.258;2022-07-06T14:51:21;5.60;;;2.87;;
12348;SDS011;5974;42.710;27.258;2022-07-06T14:53:49;3.53;;;2.90;;
12348;SDS011;5974;42.710;27.258;2022-07-06T14:56:15;4.40;;;2.73;;
12348;SDS011;5974;42.710;27.258;2022-07-06T14:58:42;5.07;;;3.00;;